sensor_id;sensor_type;location;lat;lon;timestamp;P1;durP1;ratioP1;P2;durP2;ratioP2
25231;SDS011;13176;51.140;6.290;2023-06-14T00:01:13;82.47;;;77.50;;
25231;SDS011;13176;51.140;6.290;2023-06-14T00:03:40;86.00;;;80.95;;
25231;SDS011;13176;51.140;6.290;2023-06-14T00:06:06;86.97;;;82.00;;
25231;SDS011;13176;51.140;6.290;2023-06-14T00:08:33;99.35;;;93.50;;
25231;SDS011;13176;51.140;6.290;2023-06-14T00:10:59;108.95;;;102.90;;
25231;SDS011;13176;51.140;6.290;2023-06-14T00:13:26;107.55;;;101.13;;
25231;SDS011;13176;51.140;6.290;2023-06-14T00:15:52;101.55;;;95.55;;
25231;SDS011;13176;51.140;6.290;2023-06-14T00:18:21;103.40;;;97.65;;
25231;SDS011;13176;51.140;6.290;2023-06-14T00:20:50;89.85;;;84.82;;
25231;SDS011;13176;51.140;6.290;2023-06-14T00:23:20;93.07;;;87.28;;
25231;SDS011;13176;51.140;6.290;2023-06-14T00:25:47;83.47;;;78.70;;
25231;SDS011;13176;51.140;6.290;2023-06-14T00:28:14;88.72;;;83.85;;
25231;SDS011;13176;51.140;6.290;2023-06-14T00:30:41;87.28;;;82.40;;
25231;SDS011;13176;51.140;6.290;2023-06-14T00:33:07;86.68;;;81.65;;
25231;SDS011;13176;51.140;6.290;2023-06-14T00:35:33;86.97;;;81.88;;
25231;SDS011;13176;51.140;6.290;2023-06-14T00:38:00;70.82;;;66.88;;
25231;SDS011;13176;51.140;6.290;2023-06-14T00:40:27;87.57;;;82.78;;
25231;SDS011;13176;51.140;6.290;2023-06-14T00:42:54;66.85;;;63.10;;
25231;SDS011;13176;51.140;6.290;2023-06-14T00:45:20;82.25;;;77.60;;
25231;SDS011;13176;51.140;6.290;2023-06-14T00:47:47;71.53;;;67.53;;
25231;SDS011;13176;51.140;6.290;2023-06-14T00:50:17;101.18;;;95.40;;
25231;SDS011;13176;51.140;6.290;2023-06-14T00:52:44;61.10;;;57.50;;
25231;SDS011;13176;51.140;6.290;2023-06-14T00:55:10;73.78;;;69.32;;
25231;SDS011;13176;51.140;6.290;2023-06-14T00:57:38;85.40;;;80.45;;
25231;SDS011;13176;51.140;6.290;2023-06-14T01:00:06;82.55;;;77.40;;
25231;SDS011;13176;51.140;6.290;2023-06-14T01:02:36;80.00;;;75.28;;
25231;SDS011;13176;51.140;6.290;2023-06-14T01:05:03;70.10;;;66.13;;
25231;SDS011;13176;51.140;6.290;2023-06-14T01:10:22;76.75;;;72.38;;
25231;SDS011;13176;51.140;6.290;2023-06-14T01:13:01;82.50;;;77.80;;
25231;SDS011;13176;51.140;6.290;2023-06-14T01:15:33;76.18;;;71.95;;
25231;SDS011;13176;51.140;6.290;2023-06-14T01:18:00;63.05;;;59.33;;
25231;SDS011;13176;51.140;6.290;2023-06-14T01:20:30;54.53;;;51.47;;
25231;SDS011;13176;51.140;6.290;2023-06-14T01:22:58;57.30;;;53.97;;
25231;SDS011;13176;51.140;6.290;2023-06-14T01:25:25;52.75;;;49.78;;
25231;SDS011;13176;51.140;6.290;2023-06-14T01:27:55;54.88;;;51.88;;
25231;SDS011;13176;51.140;6.290;2023-06-14T01:30:26;54.45;;;51.47;;
25231;SDS011;13176;51.140;6.290;2023-06-14T01:32:54;56.03;;;52.75;;
25231;SDS011;13176;51.140;6.290;2023-06-14T01:35:22;58.05;;;54.78;;
25231;SDS011;13176;51.140;6.290;2023-06-14T01:37:49;62.90;;;59.30;;
25231;SDS011;13176;51.140;6.290;2023-06-14T01:40:18;66.32;;;62.65;;
25231;SDS011;13176;51.140;6.290;2023-06-14T01:42:46;66.75;;;62.90;;
25231;SDS011;13176;51.140;6.290;2023-06-14T01:45:14;73.43;;;68.97;;
25231;SDS011;13176;51.140;6.290;2023-06-14T01:47:41;65.18;;;61.38;;
25231;SDS011;13176;51.140;6.290;2023-06-14T01:50:09;68.60;;;64.68;;
25231;SDS011;13176;51.140;6.290;2023-06-14T01:52:36;60.53;;;57.00;;
25231;SDS011;13176;51.140;6.290;2023-06-14T01:55:04;67.60;;;63.75;;
25231;SDS011;13176;51.140;6.290;2023-06-14T01:57:31;69.63;;;65.60;;
25231;SDS011;13176;51.140;6.290;2023-06-14T01:59:57;76.78;;;72.15;;
25231;SDS011;13176;51.140;6.290;2023-06-14T02:02:24;69.57;;;65.55;;
25231;SDS011;13176;51.140;6.290;2023-06-14T02:04:50;72.50;;;68.47;;
25231;SDS011;13176;51.140;6.290;2023-06-14T02:07:17;75.60;;;71.43;;
25231;SDS011;13176;51.140;6.290;2023-06-14T02:09:43;72.95;;;68.68;;
25231;SDS011;13176;51.140;6.290;2023-06-14T02:12:10;71.70;;;67.72;;
25231;SDS011;13176;51.140;6.290;2023-06-14T02:14:37;80.53;;;75.65;;
25231;SDS011;13176;51.140;6.290;2023-06-14T02:17:04;75.10;;;70.75;;
25231;SDS011;13176;51.140;6.290;2023-06-14T02:19:32;77.68;;;72.95;;
25231;SDS011;13176;51.140;6.290;2023-06-14T02:21:59;86.72;;;81.60;;
25231;SDS011;13176;51.140;6.290;2023-06-14T02:24:25;90.07;;;84.88;;
25231;SDS011;13176;51.140;6.290;2023-06-14T02:26:52;78.70;;;74.05;;
25231;SDS011;13176;51.140;6.290;2023-06-14T02:29:18;75.95;;;71.35;;
25231;SDS011;13176;51.140;6.290;2023-06-14T02:31:45;85.97;;;81.03;;
25231;SDS011;13176;51.140;6.290;2023-06-14T02:34:14;75.10;;;70.65;;
25231;SDS011;13176;51.140;6.290;2023-06-14T02:36:43;63.72;;;60.13;;
25231;SDS011;13176;51.140;6.290;2023-06-14T02:39:09;73.43;;;68.93;;
25231;SDS011;13176;51.140;6.290;2023-06-14T02:41:36;61.50;;;57.67;;
25231;SDS011;13176;51.140;6.290;2023-06-14T02:44:03;62.67;;;59.08;;
25231;SDS011;13176;51.140;6.290;2023-06-14T02:46:30;51.42;;;48.33;;
25231;SDS011;13176;51.140;6.290;2023-06-14T02:48:56;52.90;;;49.55;;
25231;SDS011;13176;51.140;6.290;2023-06-14T02:51:23;55.53;;;52.20;;
25231;SDS011;13176;51.140;6.290;2023-06-14T02:53:49;53.10;;;50.08;;
25231;SDS011;13176;51.140;6.290;2023-06-14T02:56:16;54.80;;;51.67;;
25231;SDS011;13176;51.140;6.290;2023-06-14T02:58:45;52.80;;;49.30;;
25231;SDS011;13176;51.140;6.290;2023-06-14T03:01:12;53.10;;;49.97;;
25231;SDS011;13176;51.140;6.290;2023-06-14T03:03:39;55.05;;;51.42;;
25231;SDS011;13176;51.140;6.290;2023-06-14T03:06:05;54.97;;;51.65;;
25231;SDS011;13176;51.140;6.290;2023-06-14T03:08:32;56.70;;;53.30;;
25231;SDS011;13176;51.140;6.290;2023-06-14T03:11:04;55.42;;;51.75;;
25231;SDS011;13176;51.140;6.290;2023-06-14T03:13:34;50.88;;;47.60;;
25231;SDS011;13176;51.140;6.290;2023-06-14T03:16:01;50.70;;;47.78;;
25231;SDS011;13176;51.140;6.290;2023-06-14T03:18:30;54.95;;;51.63;;
25231;SDS011;13176;51.140;6.290;2023-06-14T03:21:01;56.85;;;53.47;;
25231;SDS011;13176;51.140;6.290;2023-06-14T03:23:29;75.85;;;71.60;;
25231;SDS011;13176;51.140;6.290;2023-06-14T03:25:55;81.68;;;77.03;;
25231;SDS011;13176;51.140;6.290;2023-06-14T03:28:22;71.38;;;67.22;;
25231;SDS011;13176;51.140;6.290;2023-06-14T03:30:49;80.05;;;75.20;;
25231;SDS011;13176;51.140;6.290;2023-06-14T03:33:15;83.50;;;78.72;;
25231;SDS011;13176;51.140;6.290;2023-06-14T03:35:43;69.80;;;65.85;;
25231;SDS011;13176;51.140;6.290;2023-06-14T03:38:09;79.68;;;75.15;;
25231;SDS011;13176;51.140;6.290;2023-06-14T03:40:36;60.58;;;57.17;;
25231;SDS011;13176;51.140;6.290;2023-06-14T03:43:02;127.38;;;120.35;;
25231;SDS011;13176;51.140;6.290;2023-06-14T03:45:29;116.53;;;109.85;;
25231;SDS011;13176;51.140;6.290;2023-06-14T03:47:55;86.13;;;81.20;;
25231;SDS011;13176;51.140;6.290;2023-06-14T03:50:22;107.95;;;101.75;;
25231;SDS011;13176;51.140;6.290;2023-06-14T03:52:49;85.55;;;80.38;;
25231;SDS011;13176;51.140;6.290;2023-06-14T03:55:16;198.82;;;187.02;;
25231;SDS011;13176;51.140;6.290;2023-06-14T03:57:45;324.38;;;304.80;;
25231;SDS011;13176;51.140;6.290;2023-06-14T04:00:12;123.30;;;116.13;;
25231;SDS011;13176;51.140;6.290;2023-06-14T04:02:39;137.23;;;129.30;;
25231;SDS011;13176;51.140;6.290;2023-06-14T04:05:06;415.02;;;389.70;;
25231;SDS011;13176;51.140;6.290;2023-06-14T04:07:35;498.80;;;466.55;;
25231;SDS011;13176;51.140;6.290;2023-06-14T04:10:09;366.30;;;343.70;;
25231;SDS011;13176;51.140;6.290;2023-06-14T04:12:35;381.17;;;356.88;;
25231;SDS011;13176;51.140;6.290;2023-06-14T04:15:02;338.38;;;318.10;;
25231;SDS011;13176;51.140;6.290;2023-06-14T04:17:46;143.27;;;134.93;;
25231;SDS011;13176;51.140;6.290;2023-06-14T04:20:12;288.88;;;272.35;;
25231;SDS011;13176;51.140;6.290;2023-06-14T04:22:39;276.35;;;260.40;;
25231;SDS011;13176;51.140;6.290;2023-06-14T04:25:07;531.10;;;496.23;;
25231;SDS011;13176;51.140;6.290;2023-06-14T04:27:34;515.55;;;481.80;;
25231;SDS011;13176;51.140;6.290;2023-06-14T04:30:03;172.50;;;162.57;;
25231;SDS011;13176;51.140;6.290;2023-06-14T04:32:30;427.15;;;400.20;;
25231;SDS011;13176;51.140;6.290;2023-06-14T04:35:00;156.75;;;148.00;;
25231;SDS011;13176;51.140;6.290;2023-06-14T04:37:28;382.48;;;359.35;;
25231;SDS011;13176;51.140;6.290;2023-06-14T04:39:56;250.18;;;235.85;;
25231;SDS011;13176;51.140;6.290;2023-06-14T04:42:24;296.35;;;279.15;;
25231;SDS011;13176;51.140;6.290;2023-06-14T04:44:57;516.92;;;483.17;;
25231;SDS011;13176;51.140;6.290;2023-06-14T04:47:24;568.67;;;531.80;;
25231;SDS011;13176;51.140;6.290;2023-06-14T04:49:58;720.72;;;668.20;;
25231;SDS011;13176;51.140;6.290;2023-06-14T04:52:26;643.47;;;598.97;;
25231;SDS011;13176;51.140;6.290;2023-06-14T04:54:52;640.88;;;596.35;;
25231;SDS011;13176;51.140;6.290;2023-06-14T04:57:20;644.10;;;599.50;;
25231;SDS011;13176;51.140;6.290;2023-06-14T04:59:48;567.05;;;528.85;;
25231;SDS011;13176;51.140;6.290;2023-06-14T05:02:21;605.78;;;565.33;;
25231;SDS011;13176;51.140;6.290;2023-06-14T05:04:49;766.40;;;708.35;;
25231;SDS011;13176;51.140;6.290;2023-06-14T05:07:16;585.22;;;545.80;;
25231;SDS011;13176;51.140;6.290;2023-06-14T05:09:42;321.50;;;300.42;;
25231;SDS011;13176;51.140;6.290;2023-06-14T05:12:10;319.73;;;300.25;;
25231;SDS011;13176;51.140;6.290;2023-06-14T05:14:37;564.38;;;527.40;;
25231;SDS011;13176;51.140;6.290;2023-06-14T05:17:04;727.33;;;670.45;;
25231;SDS011;13176;51.140;6.290;2023-06-14T05:19:30;401.67;;;377.55;;
25231;SDS011;13176;51.140;6.290;2023-06-14T05:21:57;258.40;;;243.93;;
25231;SDS011;13176;51.140;6.290;2023-06-14T05:24:23;371.85;;;346.83;;
25231;SDS011;13176;51.140;6.290;2023-06-14T05:26:50;642.22;;;597.05;;
25231;SDS011;13176;51.140;6.290;2023-06-14T05:29:16;796.97;;;735.05;;
25231;SDS011;13176;51.140;6.290;2023-06-14T05:31:43;763.70;;;705.45;;
25231;SDS011;13176;51.140;6.290;2023-06-14T05:34:09;419.20;;;391.77;;
25231;SDS011;13176;51.140;6.290;2023-06-14T05:36:36;535.90;;;500.88;;
25231;SDS011;13176;51.140;6.290;2023-06-14T05:39:03;684.50;;;636.92;;
25231;SDS011;13176;51.140;6.290;2023-06-14T05:41:30;632.10;;;586.88;;
25231;SDS011;13176;51.140;6.290;2023-06-14T05:43:57;542.17;;;506.20;;
25231;SDS011;13176;51.140;6.290;2023-06-14T05:46:24;628.20;;;584.47;;
25231;SDS011;13176;51.140;6.290;2023-06-14T05:48:52;208.45;;;196.93;;
25231;SDS011;13176;51.140;6.290;2023-06-14T05:51:19;587.40;;;543.75;;
25231;SDS011;13176;51.140;6.290;2023-06-14T05:53:45;194.60;;;183.35;;
25231;SDS011;13176;51.140;6.290;2023-06-14T05:56:13;114.38;;;107.47;;
25231;SDS011;13176;51.140;6.290;2023-06-14T05:58:40;141.20;;;132.55;;
25231;SDS011;13176;51.140;6.290;2023-06-14T06:01:07;131.15;;;122.95;;
25231;SDS011;13176;51.140;6.290;2023-06-14T06:03:34;279.73;;;262.63;;
25231;SDS011;13176;51.140;6.290;2023-06-14T06:06:00;71.72;;;67.15;;
25231;SDS011;13176;51.140;6.290;2023-06-14T06:08:27;79.00;;;74.18;;
25231;SDS011;13176;51.140;6.290;2023-06-14T06:10:53;172.00;;;161.70;;
25231;SDS011;13176;51.140;6.290;2023-06-14T06:13:19;110.38;;;103.03;;
25231;SDS011;13176;51.140;6.290;2023-06-14T06:15:46;79.80;;;74.90;;
25231;SDS011;13176;51.140;6.290;2023-06-14T06:18:12;202.00;;;189.93;;
25231;SDS011;13176;51.140;6.290;2023-06-14T06:20:39;93.57;;;88.00;;
25231;SDS011;13176;51.140;6.290;2023-06-14T06:23:05;142.88;;;134.43;;
25231;SDS011;13176;51.140;6.290;2023-06-14T06:25:32;59.17;;;55.85;;
25231;SDS011;13176;51.140;6.290;2023-06-14T06:27:58;79.50;;;74.78;;
25231;SDS011;13176;51.140;6.290;2023-06-14T06:30:25;184.50;;;173.48;;
25231;SDS011;13176;51.140;6.290;2023-06-14T06:32:52;301.67;;;283.30;;
25231;SDS011;13176;51.140;6.290;2023-06-14T06:35:19;279.25;;;261.88;;
25231;SDS011;13176;51.140;6.290;2023-06-14T06:37:46;271.10;;;254.32;;
25231;SDS011;13176;51.140;6.290;2023-06-14T06:40:12;253.43;;;237.75;;
25231;SDS011;13176;51.140;6.290;2023-06-14T06:42:39;230.02;;;215.80;;
25231;SDS011;13176;51.140;6.290;2023-06-14T06:45:05;240.75;;;226.32;;
25231;SDS011;13176;51.140;6.290;2023-06-14T06:47:32;138.93;;;130.40;;
25231;SDS011;13176;51.140;6.290;2023-06-14T06:49:59;138.80;;;130.18;;
25231;SDS011;13176;51.140;6.290;2023-06-14T06:52:25;146.98;;;137.68;;
25231;SDS011;13176;51.140;6.290;2023-06-14T06:54:52;130.27;;;122.47;;
25231;SDS011;13176;51.140;6.290;2023-06-14T06:57:21;124.30;;;117.07;;
25231;SDS011;13176;51.140;6.290;2023-06-14T06:59:50;123.38;;;116.38;;
25231;SDS011;13176;51.140;6.290;2023-06-14T07:02:17;141.30;;;132.48;;
25231;SDS011;13176;51.140;6.290;2023-06-14T07:04:44;122.32;;;114.90;;
25231;SDS011;13176;51.140;6.290;2023-06-14T07:07:11;114.43;;;107.65;;
25231;SDS011;13176;51.140;6.290;2023-06-14T07:09:37;116.50;;;109.88;;
25231;SDS011;13176;51.140;6.290;2023-06-14T07:12:04;116.78;;;110.10;;
25231;SDS011;13176;51.140;6.290;2023-06-14T07:14:31;144.70;;;135.63;;
25231;SDS011;13176;51.140;6.290;2023-06-14T07:16:57;116.28;;;109.50;;
25231;SDS011;13176;51.140;6.290;2023-06-14T07:19:24;124.07;;;116.15;;
25231;SDS011;13176;51.140;6.290;2023-06-14T07:21:50;151.73;;;142.52;;
25231;SDS011;13176;51.140;6.290;2023-06-14T07:24:17;130.20;;;122.43;;
25231;SDS011;13176;51.140;6.290;2023-06-14T07:26:43;125.35;;;117.40;;
25231;SDS011;13176;51.140;6.290;2023-06-14T07:29:10;123.45;;;116.28;;
25231;SDS011;13176;51.140;6.290;2023-06-14T07:31:37;119.63;;;112.68;;
25231;SDS011;13176;51.140;6.290;2023-06-14T07:34:03;107.90;;;101.75;;
25231;SDS011;13176;51.140;6.290;2023-06-14T07:36:30;117.95;;;111.15;;
25231;SDS011;13176;51.140;6.290;2023-06-14T07:38:56;118.68;;;111.90;;
25231;SDS011;13176;51.140;6.290;2023-06-14T07:41:23;117.28;;;110.55;;
25231;SDS011;13176;51.140;6.290;2023-06-14T07:43:49;126.53;;;119.25;;
25231;SDS011;13176;51.140;6.290;2023-06-14T07:46:16;115.72;;;108.88;;
25231;SDS011;13176;51.140;6.290;2023-06-14T07:48:43;122.78;;;115.60;;
25231;SDS011;13176;51.140;6.290;2023-06-14T07:51:09;121.50;;;114.60;;
25231;SDS011;13176;51.140;6.290;2023-06-14T07:53:36;112.88;;;106.05;;
25231;SDS011;13176;51.140;6.290;2023-06-14T07:56:03;138.00;;;129.93;;
25231;SDS011;13176;51.140;6.290;2023-06-14T07:58:29;115.00;;;108.50;;
25231;SDS011;13176;51.140;6.290;2023-06-14T08:00:56;117.45;;;110.88;;
25231;SDS011;13176;51.140;6.290;2023-06-14T08:03:22;144.95;;;136.70;;
25231;SDS011;13176;51.140;6.290;2023-06-14T08:05:50;121.43;;;114.35;;
25231;SDS011;13176;51.140;6.290;2023-06-14T08:08:17;110.53;;;103.93;;
25231;SDS011;13176;51.140;6.290;2023-06-14T08:10:43;185.77;;;175.35;;
25231;SDS011;13176;51.140;6.290;2023-06-14T08:13:10;197.05;;;185.90;;
25231;SDS011;13176;51.140;6.290;2023-06-14T08:15:36;186.40;;;175.77;;
25231;SDS011;13176;51.140;6.290;2023-06-14T08:18:03;159.45;;;150.55;;
25231;SDS011;13176;51.140;6.290;2023-06-14T08:20:30;160.70;;;151.40;;
25231;SDS011;13176;51.140;6.290;2023-06-14T08:22:57;252.98;;;238.82;;
25231;SDS011;13176;51.140;6.290;2023-06-14T08:25:24;155.95;;;147.25;;
25231;SDS011;13176;51.140;6.290;2023-06-14T08:27:50;165.35;;;156.00;;
25231;SDS011;13176;51.140;6.290;2023-06-14T08:30:17;228.95;;;216.25;;
25231;SDS011;13176;51.140;6.290;2023-06-14T08:32:43;245.48;;;231.93;;
25231;SDS011;13176;51.140;6.290;2023-06-14T08:35:10;244.32;;;230.48;;
25231;SDS011;13176;51.140;6.290;2023-06-14T08:37:39;225.90;;;213.20;;
25231;SDS011;13176;51.140;6.290;2023-06-14T08:40:20;206.88;;;194.98;;
25231;SDS011;13176;51.140;6.290;2023-06-14T08:42:51;235.88;;;221.95;;
25231;SDS011;13176;51.140;6.290;2023-06-14T08:45:19;204.00;;;191.95;;
25231;SDS011;13176;51.140;6.290;2023-06-14T08:47:51;209.88;;;197.68;;
25231;SDS011;13176;51.140;6.290;2023-06-14T08:50:25;214.77;;;202.48;;
25231;SDS011;13176;51.140;6.290;2023-06-14T08:52:57;131.07;;;123.47;;
25231;SDS011;13176;51.140;6.290;2023-06-14T08:55:29;186.07;;;175.15;;
25231;SDS011;13176;51.140;6.290;2023-06-14T08:58:01;202.02;;;190.43;;
25231;SDS011;13176;51.140;6.290;2023-06-14T09:00:29;163.68;;;154.45;;
25231;SDS011;13176;51.140;6.290;2023-06-14T09:02:56;122.55;;;115.60;;
25231;SDS011;13176;51.140;6.290;2023-06-14T09:05:26;71.95;;;67.97;;
25231;SDS011;13176;51.140;6.290;2023-06-14T09:07:53;76.20;;;72.15;;
25231;SDS011;13176;51.140;6.290;2023-06-14T09:10:30;79.05;;;74.88;;
25231;SDS011;13176;51.140;6.290;2023-06-14T09:13:00;123.20;;;116.20;;
25231;SDS011;13176;51.140;6.290;2023-06-14T09:15:28;84.57;;;80.07;;
25231;SDS011;13176;51.140;6.290;2023-06-14T09:17:55;68.15;;;64.25;;
25231;SDS011;13176;51.140;6.290;2023-06-14T09:20:23;60.67;;;57.28;;
25231;SDS011;13176;51.140;6.290;2023-06-14T09:22:50;64.78;;;61.42;;
25231;SDS011;13176;51.140;6.290;2023-06-14T09:25:17;56.95;;;53.92;;
25231;SDS011;13176;51.140;6.290;2023-06-14T09:28:06;54.20;;;51.13;;
25231;SDS011;13176;51.140;6.290;2023-06-14T09:30:33;72.93;;;68.90;;
25231;SDS011;13176;51.140;6.290;2023-06-14T09:32:59;135.65;;;127.90;;
25231;SDS011;13176;51.140;6.290;2023-06-14T09:35:27;85.30;;;80.78;;
25231;SDS011;13176;51.140;6.290;2023-06-14T09:37:57;85.82;;;81.18;;
25231;SDS011;13176;51.140;6.290;2023-06-14T09:40:23;77.50;;;73.43;;
25231;SDS011;13176;51.140;6.290;2023-06-14T09:42:50;122.68;;;115.65;;
25231;SDS011;13176;51.140;6.290;2023-06-14T09:45:18;87.30;;;81.95;;
25231;SDS011;13176;51.140;6.290;2023-06-14T09:47:48;106.85;;;100.85;;
25231;SDS011;13176;51.140;6.290;2023-06-14T09:53:01;119.88;;;113.00;;
25231;SDS011;13176;51.140;6.290;2023-06-14T09:55:31;153.57;;;144.50;;
25231;SDS011;13176;51.140;6.290;2023-06-14T09:58:03;137.65;;;129.75;;
25231;SDS011;13176;51.140;6.290;2023-06-14T10:00:33;143.23;;;134.77;;
25231;SDS011;13176;51.140;6.290;2023-06-14T10:03:29;114.93;;;108.47;;
25231;SDS011;13176;51.140;6.290;2023-06-14T10:06:17;103.18;;;97.45;;
25231;SDS011;13176;51.140;6.290;2023-06-14T10:08:44;121.93;;;114.78;;
25231;SDS011;13176;51.140;6.290;2023-06-14T10:11:12;96.40;;;90.68;;
25231;SDS011;13176;51.140;6.290;2023-06-14T10:13:39;109.72;;;103.80;;
25231;SDS011;13176;51.140;6.290;2023-06-14T10:16:10;124.13;;;117.30;;
25231;SDS011;13176;51.140;6.290;2023-06-14T10:18:45;128.10;;;121.15;;
25231;SDS011;13176;51.140;6.290;2023-06-14T10:21:41;118.97;;;112.28;;
25231;SDS011;13176;51.140;6.290;2023-06-14T10:24:13;135.32;;;126.85;;
25231;SDS011;13176;51.140;6.290;2023-06-14T10:26:53;132.02;;;124.43;;
25231;SDS011;13176;51.140;6.290;2023-06-14T10:29:24;139.98;;;131.93;;
25231;SDS011;13176;51.140;6.290;2023-06-14T10:31:51;133.20;;;125.32;;
25231;SDS011;13176;51.140;6.290;2023-06-14T10:34:23;137.63;;;129.55;;
25231;SDS011;13176;51.140;6.290;2023-06-14T10:37:10;139.68;;;131.30;;
25231;SDS011;13176;51.140;6.290;2023-06-14T10:39:42;133.63;;;125.68;;
25231;SDS011;13176;51.140;6.290;2023-06-14T10:42:12;176.13;;;165.30;;
25231;SDS011;13176;51.140;6.290;2023-06-14T10:44:42;139.45;;;130.50;;
25231;SDS011;13176;51.140;6.290;2023-06-14T10:47:25;146.68;;;137.55;;
25231;SDS011;13176;51.140;6.290;2023-06-14T10:49:54;179.30;;;168.80;;
25231;SDS011;13176;51.140;6.290;2023-06-14T10:52:41;169.13;;;158.65;;
25231;SDS011;13176;51.140;6.290;2023-06-14T10:55:18;159.57;;;150.20;;
25231;SDS011;13176;51.140;6.290;2023-06-14T10:57:53;217.50;;;204.48;;
25231;SDS011;13176;51.140;6.290;2023-06-14T11:00:25;196.38;;;184.88;;
25231;SDS011;13176;51.140;6.290;2023-06-14T11:05:53;197.40;;;185.82;;
25231;SDS011;13176;51.140;6.290;2023-06-14T11:11:51;135.13;;;127.03;;
25231;SDS011;13176;51.140;6.290;2023-06-14T11:14:22;151.95;;;143.07;;
25231;SDS011;13176;51.140;6.290;2023-06-14T11:17:00;138.05;;;130.07;;
25231;SDS011;13176;51.140;6.290;2023-06-14T11:19:28;125.40;;;118.07;;
25231;SDS011;13176;51.140;6.290;2023-06-14T11:21:55;136.02;;;128.10;;
25231;SDS011;13176;51.140;6.290;2023-06-14T11:24:22;77.32;;;73.07;;
25231;SDS011;13176;51.140;6.290;2023-06-14T11:26:56;104.78;;;98.70;;
25231;SDS011;13176;51.140;6.290;2023-06-14T11:29:23;145.05;;;136.57;;
25231;SDS011;13176;51.140;6.290;2023-06-14T11:31:50;143.68;;;135.20;;
25231;SDS011;13176;51.140;6.290;2023-06-14T11:34:17;182.75;;;172.35;;
25231;SDS011;13176;51.140;6.290;2023-06-14T11:36:43;196.48;;;185.00;;
25231;SDS011;13176;51.140;6.290;2023-06-14T11:39:12;187.68;;;176.68;;
25231;SDS011;13176;51.140;6.290;2023-06-14T11:41:40;181.18;;;170.30;;
25231;SDS011;13176;51.140;6.290;2023-06-14T11:44:09;160.77;;;151.15;;
25231;SDS011;13176;51.140;6.290;2023-06-14T11:46:36;198.00;;;186.82;;
25231;SDS011;13176;51.140;6.290;2023-06-14T11:49:02;191.50;;;180.23;;
25231;SDS011;13176;51.140;6.290;2023-06-14T11:51:31;168.48;;;158.57;;
25231;SDS011;13176;51.140;6.290;2023-06-14T11:53:59;160.10;;;150.50;;
25231;SDS011;13176;51.140;6.290;2023-06-14T11:56:26;153.60;;;144.55;;
25231;SDS011;13176;51.140;6.290;2023-06-14T11:58:53;184.98;;;174.13;;
25231;SDS011;13176;51.140;6.290;2023-06-14T12:01:22;166.52;;;156.57;;
25231;SDS011;13176;51.140;6.290;2023-06-14T12:03:50;121.18;;;114.20;;
25231;SDS011;13176;51.140;6.290;2023-06-14T12:06:25;152.43;;;143.30;;
25231;SDS011;13176;51.140;6.290;2023-06-14T12:08:55;156.98;;;147.95;;
25231;SDS011;13176;51.140;6.290;2023-06-14T12:11:22;188.38;;;177.63;;
25231;SDS011;13176;51.140;6.290;2023-06-14T12:13:49;155.93;;;146.73;;
25231;SDS011;13176;51.140;6.290;2023-06-14T12:16:18;147.18;;;138.60;;
25231;SDS011;13176;51.140;6.290;2023-06-14T12:18:44;141.70;;;133.52;;
25231;SDS011;13176;51.140;6.290;2023-06-14T12:21:12;131.73;;;124.20;;
25231;SDS011;13176;51.140;6.290;2023-06-14T12:23:39;138.48;;;130.60;;
25231;SDS011;13176;51.140;6.290;2023-06-14T12:26:07;149.73;;;141.05;;
25231;SDS011;13176;51.140;6.290;2023-06-14T12:28:37;139.57;;;131.35;;
25231;SDS011;13176;51.140;6.290;2023-06-14T12:31:09;176.32;;;166.40;;
25231;SDS011;13176;51.140;6.290;2023-06-14T12:33:38;140.10;;;131.70;;
25231;SDS011;13176;51.140;6.290;2023-06-14T12:36:07;165.75;;;156.07;;
25231;SDS011;13176;51.140;6.290;2023-06-14T12:38:34;158.35;;;149.18;;
25231;SDS011;13176;51.140;6.290;2023-06-14T12:41:01;151.60;;;142.95;;
25231;SDS011;13176;51.140;6.290;2023-06-14T12:43:29;150.48;;;141.50;;
25231;SDS011;13176;51.140;6.290;2023-06-14T12:45:55;164.30;;;154.80;;
25231;SDS011;13176;51.140;6.290;2023-06-14T12:48:22;177.20;;;167.05;;
25231;SDS011;13176;51.140;6.290;2023-06-14T12:50:48;162.07;;;152.75;;
25231;SDS011;13176;51.140;6.290;2023-06-14T12:53:15;174.45;;;164.35;;
25231;SDS011;13176;51.140;6.290;2023-06-14T12:55:41;170.02;;;160.20;;
25231;SDS011;13176;51.140;6.290;2023-06-14T12:58:07;179.75;;;169.25;;
25231;SDS011;13176;51.140;6.290;2023-06-14T13:00:34;183.55;;;172.90;;
25231;SDS011;13176;51.140;6.290;2023-06-14T13:03:01;159.95;;;150.73;;
25231;SDS011;13176;51.140;6.290;2023-06-14T13:05:28;181.95;;;171.48;;
25231;SDS011;13176;51.140;6.290;2023-06-14T13:07:54;181.55;;;170.93;;
25231;SDS011;13176;51.140;6.290;2023-06-14T13:10:21;180.27;;;169.80;;
25231;SDS011;13176;51.140;6.290;2023-06-14T13:12:47;179.70;;;169.18;;
25231;SDS011;13176;51.140;6.290;2023-06-14T13:15:14;169.27;;;158.80;;
25231;SDS011;13176;51.140;6.290;2023-06-14T13:17:41;162.90;;;153.50;;
25231;SDS011;13176;51.140;6.290;2023-06-14T13:20:08;172.32;;;161.88;;
25231;SDS011;13176;51.140;6.290;2023-06-14T13:22:34;175.20;;;164.90;;
25231;SDS011;13176;51.140;6.290;2023-06-14T13:25:03;171.60;;;161.85;;
25231;SDS011;13176;51.140;6.290;2023-06-14T13:27:33;156.82;;;147.73;;
25231;SDS011;13176;51.140;6.290;2023-06-14T13:29:59;174.18;;;164.15;;
25231;SDS011;13176;51.140;6.290;2023-06-14T13:32:25;181.82;;;171.48;;
25231;SDS011;13176;51.140;6.290;2023-06-14T13:34:52;170.27;;;160.38;;
25231;SDS011;13176;51.140;6.290;2023-06-14T13:37:18;175.82;;;165.85;;
25231;SDS011;13176;51.140;6.290;2023-06-14T13:39:45;182.13;;;171.75;;
25231;SDS011;13176;51.140;6.290;2023-06-14T13:42:12;192.85;;;181.80;;
25231;SDS011;13176;51.140;6.290;2023-06-14T13:44:38;178.20;;;167.82;;
25231;SDS011;13176;51.140;6.290;2023-06-14T13:47:05;183.27;;;172.75;;
25231;SDS011;13176;51.140;6.290;2023-06-14T13:49:32;189.40;;;177.82;;
25231;SDS011;13176;51.140;6.290;2023-06-14T13:52:01;192.05;;;181.00;;
25231;SDS011;13176;51.140;6.290;2023-06-14T13:54:27;197.55;;;186.23;;
25231;SDS011;13176;51.140;6.290;2023-06-14T13:56:54;188.40;;;177.52;;
25231;SDS011;13176;51.140;6.290;2023-06-14T13:59:20;176.35;;;166.20;;
25231;SDS011;13176;51.140;6.290;2023-06-14T14:01:48;184.80;;;174.15;;
25231;SDS011;13176;51.140;6.290;2023-06-14T14:04:14;188.20;;;177.68;;
25231;SDS011;13176;51.140;6.290;2023-06-14T14:06:41;181.75;;;171.23;;
25231;SDS011;13176;51.140;6.290;2023-06-14T14:09:08;196.82;;;185.65;;
25231;SDS011;13176;51.140;6.290;2023-06-14T14:11:35;186.88;;;176.23;;
25231;SDS011;13176;51.140;6.290;2023-06-14T14:14:01;208.02;;;196.25;;
25231;SDS011;13176;51.140;6.290;2023-06-14T14:16:28;204.30;;;192.50;;
25231;SDS011;13176;51.140;6.290;2023-06-14T14:18:54;177.63;;;167.35;;
25231;SDS011;13176;51.140;6.290;2023-06-14T14:21:20;195.23;;;183.90;;